Time;durP1;ratioP1;P1;durP2;ratioP2;P2;SDS_P1;SDS_P2;PMS_P1;PMS_P2;Temp;Humidity;BMP_temperature;BMP_pressure;BME280_temperature;BME280_humidity;BME280_pressure;Samples;Min_cycle;Max_cycle;Signal;HPM_P1;HPM_P2
2021/10/29 00:02:21;;;;;;;59.63;38.37;;;;;;;5.69;100.00;101146.63;20988241;27;20577;-67
2021/10/29 00:12:25;;;;;;;61.67;41.00;;;;;;;5.74;100.00;101127.03;20975144;28;20678;-67
2021/10/29 00:32:33;;;;;;;59.00;39.47;;;;;;;5.86;100.00;101125.78;20902038;28;20298;-66
2021/10/29 00:42:37;;;;;;;59.83;40.33;;;;;;;5.84;100.00;101114.38;20891932;28;20327;-67
2021/10/29 00:52:42;;;;;;;58.93;38.53;;;;;;;5.78;100.00;101109.28;20891666;28;20255;-67
2021/10/29 01:12:44;;;;;;;59.57;39.47;;;;;;;5.62;100.00;101087.69;20898294;27;20575;-66
2021/10/29 01:32:46;;;;;;;62.67;42.37;;;;;;;5.52;100.00;101073.03;21063890;27;20561;-66
2021/10/29 01:42:50;;;;;;;54.07;38.17;;;;;;;5.38;100.00;101073.47;21131806;27;20308;-67
2021/10/29 01:52:55;;;;;;;62.07;42.83;;;;;;;5.27;100.00;101067.63;21142214;27;20270;-68
2021/10/29 02:02:59;;;;;;;61.17;41.77;;;;;;;5.24;100.00;101059.78;21141313;27;20230;-67
2021/10/29 02:13:04;;;;;;;65.77;41.67;;;;;;;5.25;100.00;101061.50;21055894;27;20221;-68
2021/10/29 02:43:02;;;;;;;59.37;41.10;;;;;;;5.17;100.00;101028.28;21110427;27;20322;-67
2021/10/29 03:03:04;;;;;;;62.17;43.73;;;;;;;5.17;100.00;101013.25;21135004;27;20600;-68
2021/10/29 03:13:08;;;;;;;59.77;43.60;;;;;;;5.15;100.00;101020.38;21142909;28;20736;-68
2021/10/29 03:23:15;;;;;;;56.47;41.10;;;;;;;5.12;100.00;101015.16;21141734;28;20241;-68
2021/10/29 03:33:18;;;;;;;56.23;39.80;;;;;;;5.02;100.00;101011.94;21141692;28;20633;-68
2021/10/29 03:43:27;;;;;;;51.30;38.60;;;;;;;4.96;100.00;101000.66;21140614;28;20301;-68
2021/10/29 03:53:36;;;;;;;54.40;39.70;;;;;;;4.89;100.00;101009.72;21143926;28;20217;-67
2021/10/29 04:13:39;;;;;;;45.30;32.70;;;;;;;4.50;100.00;101001.16;20900248;27;20565;-67
2021/10/29 04:23:43;;;;;;;55.83;38.43;;;;;;;4.35;100.00;100987.47;20939539;28;20739;-67
2021/10/29 04:33:48;;;;;;;51.07;34.63;;;;;;;4.18;100.00;100986.22;20974344;28;20222;-68
2021/10/29 04:43:51;;;;;;;52.60;35.50;;;;;;;3.95;100.00;100953.38;20946426;28;20318;-68
2021/10/29 04:53:57;;;;;;;55.73;39.83;;;;;;;4.14;100.00;100974.00;20885760;28;20285;-68
2021/10/29 05:04:00;;;;;;;54.20;37.67;;;;;;;4.23;100.00;100976.38;20888439;28;20699;-69
2021/10/29 05:14:05;;;;;;;49.00;37.60;;;;;;;4.19;100.00;100964.19;20805671;28;20235;-68
2021/10/29 05:24:09;;;;;;;48.20;34.93;;;;;;;4.19;100.00;100978.25;20754382;28;20240;-68
2021/10/29 05:44:10;;;;;;;47.67;31.40;;;;;;;4.11;100.00;100971.44;21056598;27;20558;-68
2021/10/29 06:04:12;;;;;;;41.07;28.77;;;;;;;4.41;100.00;100982.94;20990003;27;20567;-68
2021/10/29 06:14:17;;;;;;;39.80;29.23;;;;;;;4.58;100.00;100978.91;20975007;28;20304;-68
2021/10/29 06:24:23;;;;;;;53.87;39.87;;;;;;;4.89;100.00;100983.28;20974505;28;20249;-68
2021/10/29 06:34:27;;;;;;;53.93;37.83;;;;;;;5.23;100.00;100999.81;20973287;28;20710;-68
2021/10/29 06:44:39;;;;;;;47.60;32.47;;;;;;;5.52;100.00;101005.97;20954466;28;20577;-68
2021/10/29 07:05:24;;;;;;;58.67;40.23;;;;;;;6.19;100.00;101009.00;20970589;28;20746;-68
2021/10/29 07:46:36;;;;;;;49.90;33.67;;;;;;;7.48;100.00;101012.06;20907427;28;20228;-68
2021/10/29 07:56:40;;;;;;;43.63;33.40;;;;;;;7.94;100.00;101011.03;20911889;28;20267;-67
2021/10/29 08:07:00;;;;;;;35.70;29.90;;;;;;;8.36;100.00;101024.28;20911351;28;20240;-67
2021/10/29 08:17:04;;;;;;;30.10;25.90;;;;;;;8.76;100.00;101027.84;20910181;28;20235;-67
2021/10/29 08:27:10;;;;;;;29.70;25.40;;;;;;;9.10;100.00;101021.81;20907766;28;20640;-67
2021/10/29 08:37:15;;;;;;;27.63;24.57;;;;;;;9.44;100.00;101016.59;20908782;28;20235;-67
2021/10/29 08:47:22;;;;;;;35.17;26.70;;;;;;;9.76;100.00;101009.72;20907848;28;20257;-67
2021/10/29 08:57:28;;;;;;;183.87;42.87;;;;;;;10.04;100.00;101011.81;20907253;28;20232;-67
2021/10/29 09:07:49;;;;;;;28.83;23.03;;;;;;;10.35;100.00;101016.50;20906847;28;20273;-68
2021/10/29 09:38:59;;;;;;;548.63;121.67;;;;;;;11.32;100.00;101021.84;20904615;28;20223;-67
2021/10/29 09:49:35;;;;;;;181.77;52.40;;;;;;;11.73;100.00;101006.09;20903980;28;20309;-68
2021/10/29 09:59:39;;;;;;;1999.90;844.73;;;;;;;12.13;100.00;101001.13;20903345;28;20236;-67
2021/10/29 10:09:44;;;;;;;308.50;81.17;;;;;;;12.45;100.00;101005.38;20903482;28;20650;-66
2021/10/29 10:19:48;;;;;;;124.67;43.57;;;;;;;13.00;100.00;101001.97;20902684;28;20699;-67
2021/10/29 10:30:04;;;;;;;85.70;30.47;;;;;;;13.69;100.00;100991.19;20901096;28;20227;-67
2021/10/29 10:40:37;;;;;;;43.53;24.40;;;;;;;13.80;100.00;100982.41;20901912;28;20826;-67
2021/10/29 10:50:43;;;;;;;1999.90;645.90;;;;;;;13.75;100.00;100976.53;20916675;28;20273;-67
2021/10/29 11:00:55;;;;;;;99.47;46.70;;;;;;;13.81;100.00;100972.56;20916214;28;20717;-66
2021/10/29 11:11:04;;;;;;;32.07;24.70;;;;;;;13.82;100.00;100967.09;20915860;28;20310;-67
2021/10/29 11:21:22;;;;;;;1999.90;384.03;;;;;;;13.90;100.00;100945.94;20913081;28;20231;-67
2021/10/29 11:31:28;;;;;;;535.07;97.60;;;;;;;14.05;100.00;100947.59;20914350;28;20227;-67
2021/10/29 11:41:34;;;;;;;49.80;25.13;;;;;;;14.17;100.00;100921.72;20913429;28;20228;-67
2021/10/29 11:51:41;;;;;;;29.50;23.57;;;;;;;14.29;100.00;100903.91;20911179;28;20326;-67
2021/10/29 12:12:14;;;;;;;34.17;24.67;;;;;;;14.48;100.00;100888.25;20919124;28;20244;-67
2021/10/29 12:22:28;;;;;;;58.43;30.53;;;;;;;14.53;100.00;100875.34;20992520;28;20233;-67
2021/10/29 12:32:47;;;;;;;32.40;20.83;;;;;;;14.63;100.00;100871.00;20991853;28;20321;-67
2021/10/29 12:53:29;;;;;;;81.40;25.23;;;;;;;14.66;100.00;100854.69;20988541;28;20276;-67
2021/10/29 13:03:32;;;;;;;27.37;19.20;;;;;;;14.68;100.00;100862.63;20988037;28;20234;-67
2021/10/29 13:13:40;;;;;;;18.03;15.07;;;;;;;14.71;100.00;100844.47;20988488;28;20309;-66
2021/10/29 13:55:10;;;;;;;20.47;16.23;;;;;;;14.45;100.00;100817.78;20903491;28;20239;-67
2021/10/29 14:36:23;;;;;;;19.93;17.63;;;;;;;13.41;100.00;100808.97;20905455;28;20278;-67
2021/10/29 15:28:09;;;;;;;34.87;18.47;;;;;;;11.06;100.00;100782.91;20963976;28;20772;-72
2021/10/29 15:48:41;;;;;;;21.90;16.57;;;;;;;10.32;100.00;100776.56;20839060;28;20229;-69
2021/10/29 15:58:53;;;;;;;17.33;14.27;;;;;;;10.15;100.00;100768.56;20903811;28;20310;-68
2021/10/29 16:19:30;;;;;;;18.40;14.87;;;;;;;9.81;100.00;100764.22;20851312;28;20236;-68
2021/10/29 16:29:35;;;;;;;19.17;15.63;;;;;;;9.85;100.00;100771.13;20895129;28;20227;-68
2021/10/29 16:39:40;;;;;;;19.30;14.87;;;;;;;9.82;100.00;100760.63;20882383;28;20224;-68
2021/10/29 16:49:44;;;;;;;21.40;17.13;;;;;;;9.73;100.00;100754.00;20900876;28;20282;-68
2021/10/29 16:59:49;;;;;;;26.13;18.30;;;;;;;9.63;100.00;100750.09;20876660;28;20247;-68
2021/10/29 17:09:53;;;;;;;30.83;22.60;;;;;;;9.50;100.00;100759.69;20899443;28;20242;-68
2021/10/29 17:19:58;;;;;;;27.73;18.93;;;;;;;9.31;100.00;100765.97;20877610;28;20216;-69
2021/10/29 17:30:03;;;;;;;26.83;21.07;;;;;;;9.15;100.00;100766.84;20897299;28;20245;-70
2021/10/29 17:40:11;;;;;;;26.57;19.17;;;;;;;9.11;100.00;100757.28;20865727;28;20227;-69
2021/10/29 17:50:18;;;;;;;29.33;19.50;;;;;;;9.10;100.00;100763.56;20888584;28;20205;-68
2021/10/29 18:00:23;;;;;;;26.43;20.20;;;;;;;8.93;100.00;100765.28;20888350;28;20745;-68
2021/10/29 18:10:30;;;;;;;26.17;17.63;;;;;;;8.58;100.00;100763.47;20881391;28;20238;-68
2021/10/29 18:20:37;;;;;;;26.97;18.37;;;;;;;8.18;100.00;100765.41;20879931;28;20226;-69
2021/10/29 18:30:40;;;;;;;20.97;16.17;;;;;;;7.94;100.00;100755.91;20791951;28;20253;-68
2021/10/29 18:40:46;;;;;;;22.77;17.43;;;;;;;7.80;100.00;100753.88;20822014;28;20596;-72
2021/10/29 18:50:49;;;;;;;33.47;17.00;;;;;;;8.00;100.00;100760.91;20883110;28;20205;-71
2021/10/29 19:00:54;;;;;;;23.33;16.10;;;;;;;8.13;100.00;100746.13;20904771;28;20243;-71
2021/10/29 19:10:58;;;;;;;18.80;14.60;;;;;;;8.20;100.00;100744.91;20918834;28;20287;-71
2021/10/29 19:21:04;;;;;;;18.90;14.90;;;;;;;8.26;100.00;100749.94;20918967;28;20264;-71
2021/10/29 19:31:08;;;;;;;24.90;16.30;;;;;;;8.16;100.00;100739.81;20918359;28;20290;-71
2021/10/29 19:41:13;;;;;;;17.40;14.87;;;;;;;8.01;100.00;100741.38;20914185;28;20227;-71
2021/10/29 19:51:17;;;;;;;17.73;13.73;;;;;;;7.84;100.00;100739.53;20916413;28;20225;-70
2021/10/29 20:01:22;;;;;;;23.43;17.00;;;;;;;7.48;100.00;100744.72;20915525;28;20280;-71
2021/10/29 20:11:26;;;;;;;19.27;15.17;;;;;;;7.03;100.00;100738.75;20915648;28;20662;-72
2021/10/29 20:21:31;;;;;;;19.20;14.93;;;;;;;6.63;100.00;100740.47;20914551;28;20291;-70
2021/10/29 20:31:35;;;;;;;16.60;13.27;;;;;;;6.38;100.00;100737.94;20913365;28;20200;-70
2021/10/29 20:41:40;;;;;;;18.73;14.77;;;;;;;6.20;100.00;100730.72;20914805;28;20744;-70
2021/10/29 20:51:44;;;;;;;21.00;15.90;;;;;;;6.30;100.00;100721.47;20912159;28;20607;-71
2021/10/29 21:01:49;;;;;;;19.77;14.93;;;;;;;6.26;100.00;100732.28;20910924;28;20239;-70
2021/10/29 21:11:53;;;;;;;17.90;13.70;;;;;;;5.72;100.00;100729.00;20910798;28;20215;-69
2021/10/29 21:21:58;;;;;;;18.63;13.73;;;;;;;5.31;100.00;100716.47;20910089;28;20219;-69
2021/10/29 21:32:01;;;;;;;22.90;15.90;;;;;;;5.07;100.00;100712.91;20905405;28;20199;-72
2021/10/29 21:42:17;;;;;;;23.67;16.57;;;;;;;5.54;100.00;100719.13;20889995;28;20223;-75
2021/10/29 21:52:22;;;;;;;18.83;14.30;;;;;;;5.47;100.00;100698.22;20879752;28;20793;-72
2021/10/29 22:02:27;;;;;;;19.20;14.63;;;;;;;5.58;100.00;100701.31;20901739;28;20238;-72
2021/10/29 22:12:31;;;;;;;18.33;14.47;;;;;;;5.92;100.00;100672.66;20903382;28;20228;-71
2021/10/29 22:22:36;;;;;;;18.97;14.80;;;;;;;6.30;100.00;100679.06;20902798;28;20239;-72
2021/10/29 22:32:40;;;;;;;19.47;14.80;;;;;;;6.54;100.00;100663.91;20903030;28;20620;-71
2021/10/29 22:42:45;;;;;;;22.47;17.20;;;;;;;6.83;100.00;100681.25;20911413;28;20761;-72
2021/10/29 22:52:49;;;;;;;20.67;15.57;;;;;;;6.92;100.00;100680.00;20916620;28;20711;-72
2021/10/29 23:02:54;;;;;;;20.53;16.80;;;;;;;6.85;100.00;100682.06;20915656;28;20225;-72
2021/10/29 23:12:58;;;;;;;19.63;16.10;;;;;;;6.79;100.00;100685.81;20916010;28;20290;-72
2021/10/29 23:23:05;;;;;;;21.80;16.83;;;;;;;6.64;100.00;100686.47;20915281;28;20258;-69
2021/10/29 23:33:08;;;;;;;24.33;16.80;;;;;;;6.50;100.00;100692.38;20989910;28;20310;-72
2021/10/29 23:43:14;;;;;;;22.00;16.60;;;;;;;6.37;100.00;100682.34;20995036;28;20231;-73
2021/10/29 23:53:20;;;;;;;17.33;13.37;;;;;;;6.22;100.00;100696.22;20994255;28;20311;-72
